createdAt,value
2023-01-28T00:02:06.235Z,22.25
2023-01-28T00:04:34.281Z,25.40
2023-01-28T00:07:02.232Z,23.55
2023-01-28T00:09:30.570Z,27.75
2023-01-28T00:11:59.197Z,23.15
2023-01-28T00:14:27.076Z,23.17
2023-01-28T00:16:54.824Z,21.55
2023-01-28T00:19:23.305Z,23.92
2023-01-28T00:21:51.085Z,25.15
2023-01-28T00:24:18.844Z,25.80
2023-01-28T00:26:46.723Z,21.13
2023-01-28T00:29:14.566Z,25.50
2023-01-28T00:31:45.175Z,21.80
2023-01-28T00:34:13.123Z,22.70
2023-01-28T00:36:42.346Z,20.08
2023-01-28T00:39:18.207Z,25.02
2023-01-28T00:41:45.998Z,26.80
2023-01-28T00:44:16.938Z,27.80
2023-01-28T00:46:54.278Z,29.13
2023-01-28T00:49:24.614Z,21.50
2023-01-28T00:51:52.410Z,20.10
2023-01-28T00:54:21.984Z,23.05
2023-01-28T00:56:49.856Z,19.85
2023-01-28T00:59:17.774Z,26.70
2023-01-28T01:01:45.840Z,24.90
2023-01-28T01:04:13.761Z,21.88
2023-01-28T01:06:41.758Z,24.13
2023-01-28T01:09:11.710Z,19.95
2023-01-28T01:11:41.432Z,18.13
2023-01-28T01:14:11.146Z,21.48
2023-01-28T01:16:41.132Z,22.63
2023-01-28T01:19:09.517Z,17.05
2023-01-28T01:21:37.500Z,18.95
2023-01-28T01:24:05.447Z,18.67
2023-01-28T01:26:33.381Z,24.55
2023-01-28T01:29:04.207Z,21.70
2023-01-28T01:31:32.098Z,22.50
2023-01-28T01:34:01.540Z,22.48
2023-01-28T01:36:29.393Z,20.75
2023-01-28T01:38:57.631Z,27.55
2023-01-28T01:41:30.457Z,18.58
2023-01-28T01:43:59.897Z,19.67
2023-01-28T01:46:33.729Z,20.17
2023-01-28T01:49:07.484Z,23.05
2023-01-28T01:51:35.948Z,23.25
2023-01-28T01:54:03.922Z,21.65
2023-01-28T01:56:34.126Z,17.08
2023-01-28T01:59:03.441Z,19.13
2023-01-28T02:01:33.350Z,18.42
2023-01-28T02:04:04.252Z,19.35
2023-01-28T02:06:33.050Z,19.63
2023-01-28T02:09:00.898Z,16.58
2023-01-28T02:11:30.429Z,20.75
2023-01-28T02:13:59.566Z,18.20
2023-01-28T02:16:28.922Z,18.38
2023-01-28T02:18:56.783Z,21.20
2023-01-28T02:21:27.556Z,18.77
2023-01-28T02:23:58.477Z,20.70
2023-01-28T02:26:40.509Z,20.88
2023-01-28T02:29:19.767Z,20.25
2023-01-28T02:31:53.680Z,23.10
2023-01-28T02:34:40.592Z,25.42
2023-01-28T02:37:12.381Z,17.98
2023-01-28T02:39:44.192Z,21.05
2023-01-28T02:42:32.786Z,26.43
2023-01-28T02:45:00.652Z,25.23
2023-01-28T02:47:47.151Z,21.40
2023-01-28T02:50:16.551Z,17.17
2023-01-28T02:53:09.093Z,20.92
2023-01-28T02:55:36.993Z,17.50
2023-01-28T02:58:07.801Z,18.35
2023-01-28T03:00:45.121Z,20.85
2023-01-28T03:03:17.695Z,20.85
2023-01-28T03:06:08.450Z,19.88
2023-01-28T03:09:06.022Z,21.83
2023-01-28T03:11:54.327Z,20.10
2023-01-28T03:14:41.776Z,21.80
2023-01-28T03:17:33.657Z,20.98
2023-01-28T03:20:20.281Z,20.67
2023-01-28T03:23:09.420Z,21.20
2023-01-28T03:25:57.852Z,25.50
2023-01-28T03:28:45.289Z,21.98
2023-01-28T03:31:36.705Z,19.63
2023-01-28T03:34:24.167Z,18.38
2023-01-28T03:36:53.545Z,17.65
2023-01-28T03:39:33.576Z,20.60
2023-01-28T03:42:06.662Z,20.25
2023-01-28T03:44:53.681Z,20.08
2023-01-28T03:47:29.828Z,20.27
2023-01-28T03:50:02.335Z,21.10
2023-01-28T03:52:35.580Z,20.52
2023-01-28T03:55:29.647Z,18.38
2023-01-28T03:57:57.487Z,23.30
2023-01-28T04:00:25.276Z,18.48
2023-01-28T04:02:53.296Z,18.83
2023-01-28T04:05:22.788Z,19.33
2023-01-28T04:07:51.814Z,19.80
2023-01-28T04:10:27.319Z,19.05
2023-01-28T04:12:58.579Z,18.42
2023-01-28T04:15:26.933Z,21.52
2023-01-28T04:17:55.811Z,19.23
2023-01-28T04:20:30.005Z,21.05
2023-01-28T04:23:00.462Z,23.08
2023-01-28T04:25:29.624Z,24.42
2023-01-28T04:27:57.653Z,23.52
2023-01-28T04:30:28.393Z,20.92
2023-01-28T04:33:11.496Z,22.48
2023-01-28T04:36:08.849Z,22.98
2023-01-28T04:39:00.091Z,22.52
2023-01-28T04:41:50.981Z,22.30
2023-01-28T04:44:24.923Z,20.15
2023-01-28T04:46:59.066Z,20.92
2023-01-28T04:49:50.004Z,23.08
2023-01-28T04:52:35.044Z,24.83
2023-01-28T04:55:17.871Z,24.35
2023-01-28T04:57:51.047Z,24.40
2023-01-28T05:00:19.271Z,24.52
2023-01-28T05:02:47.112Z,22.60
2023-01-28T05:05:15.386Z,23.67
2023-01-28T05:08:03.759Z,22.23
2023-01-28T05:10:31.630Z,23.25
2023-01-28T05:12:59.495Z,24.92
2023-01-28T05:15:27.412Z,27.02
2023-01-28T05:18:00.046Z,28.02
2023-01-28T05:20:31.181Z,23.13
2023-01-28T05:22:59.260Z,20.98
2023-01-28T05:25:36.365Z,20.38
2023-01-28T05:28:04.223Z,25.35
2023-01-28T05:30:32.187Z,24.48
2023-01-28T05:33:00.124Z,24.75
2023-01-28T05:35:27.887Z,23.55
2023-01-28T05:37:56.245Z,27.45
2023-01-28T05:40:24.933Z,21.73
2023-01-28T05:42:52.986Z,23.02
2023-01-28T05:45:34.140Z,26.83
2023-01-28T05:48:11.434Z,22.30
2023-01-28T05:51:14.585Z,24.15
2023-01-28T05:53:46.369Z,22.92
2023-01-28T05:56:14.288Z,27.23
2023-01-28T05:58:43.024Z,22.42
2023-01-28T06:01:10.856Z,25.70
2023-01-28T06:03:43.384Z,20.15
2023-01-28T06:06:11.409Z,20.80
2023-01-28T06:08:39.327Z,35.97
2023-01-28T06:11:07.302Z,29.15
2023-01-28T06:13:36.019Z,24.80
2023-01-28T06:16:22.244Z,23.35
2023-01-28T06:18:58.887Z,23.88
2023-01-28T06:21:29.640Z,24.23
2023-01-28T06:23:58.940Z,25.08
2023-01-28T06:26:26.885Z,22.80
2023-01-28T06:28:54.675Z,23.33
2023-01-28T06:31:22.485Z,25.38
2023-01-28T06:33:50.282Z,32.88
2023-01-28T06:36:18.530Z,28.95
2023-01-28T06:38:46.695Z,26.92
2023-01-28T06:41:14.575Z,38.38
2023-01-28T06:43:42.404Z,34.67
2023-01-28T06:46:10.174Z,35.13
2023-01-28T06:48:38.040Z,33.22
2023-01-28T06:51:06.088Z,39.53
2023-01-28T06:53:33.899Z,30.70
2023-01-28T06:56:01.691Z,34.60
2023-01-28T06:58:29.855Z,32.83
2023-01-28T07:00:57.647Z,30.73
2023-01-28T07:03:25.447Z,27.73
2023-01-28T07:05:53.253Z,27.65
2023-01-28T07:08:21.117Z,30.35
2023-01-28T07:10:49.745Z,27.88
2023-01-28T07:13:17.518Z,30.30
2023-01-28T07:15:45.472Z,28.48
2023-01-28T07:18:13.247Z,25.83
2023-01-28T07:20:41.114Z,33.83
2023-01-28T07:23:08.993Z,31.25
2023-01-28T07:25:36.803Z,32.88
2023-01-28T07:28:04.571Z,25.00
2023-01-28T07:30:32.393Z,28.80
2023-01-28T07:33:00.635Z,32.92
2023-01-28T07:35:28.646Z,34.53
2023-01-28T07:38:01.104Z,33.83
2023-01-28T07:40:29.545Z,25.15
2023-01-28T07:42:57.546Z,24.27
2023-01-28T07:45:26.098Z,31.48
2023-01-28T07:47:54.874Z,26.42
2023-01-28T07:50:22.786Z,25.65
2023-01-28T07:52:50.782Z,25.65
2023-01-28T07:55:18.834Z,23.48
2023-01-28T07:58:05.941Z,26.13
2023-01-28T08:00:34.943Z,24.55
2023-01-28T08:03:09.002Z,26.02
2023-01-28T08:05:45.261Z,29.17
2023-01-28T08:08:13.635Z,23.20
2023-01-28T08:10:41.611Z,24.38
2023-01-28T08:13:10.779Z,22.10
2023-01-28T08:15:39.042Z,25.42
2023-01-28T08:18:08.480Z,23.13
2023-01-28T08:20:36.831Z,40.25
2023-01-28T08:23:08.361Z,55.22
2023-01-28T08:25:36.765Z,46.53
2023-01-28T08:28:05.109Z,34.45
2023-01-28T08:30:33.294Z,22.98
2023-01-28T08:33:01.115Z,21.42
2023-01-28T08:35:29.923Z,19.48
2023-01-28T08:38:00.036Z,24.73
2023-01-28T08:40:28.084Z,24.83
2023-01-28T08:42:56.333Z,24.65
2023-01-28T08:45:27.625Z,27.05
2023-01-28T08:47:57.225Z,23.80
2023-01-28T08:50:26.193Z,28.45
2023-01-28T08:52:58.314Z,22.60
2023-01-28T08:55:26.536Z,29.42
2023-01-28T08:57:56.018Z,25.25
2023-01-28T09:00:25.474Z,26.05
2023-01-28T09:02:54.207Z,26.15
2023-01-28T09:05:22.528Z,29.10
2023-01-28T09:07:50.989Z,22.15
2023-01-28T09:10:20.639Z,24.77
2023-01-28T09:12:48.643Z,24.45
2023-01-28T09:15:16.527Z,21.80
2023-01-28T09:17:44.606Z,27.02
2023-01-28T09:20:13.772Z,23.52
2023-01-28T09:22:42.023Z,23.83
2023-01-28T09:25:09.915Z,22.48
2023-01-28T09:27:37.749Z,19.65
2023-01-28T09:30:07.200Z,23.50
2023-01-28T09:32:35.064Z,19.20
2023-01-28T09:35:03.163Z,22.10
2023-01-28T09:37:30.947Z,23.80
2023-01-28T09:39:58.821Z,21.23
2023-01-28T09:42:26.662Z,18.80
2023-01-28T09:45:13.505Z,20.13
2023-01-28T09:47:44.722Z,18.85
2023-01-28T09:50:19.152Z,20.63
2023-01-28T09:52:47.182Z,20.33
2023-01-28T09:55:23.775Z,20.02
2023-01-28T09:57:53.333Z,17.38
2023-01-28T10:00:30.534Z,18.80
2023-01-28T10:02:58.344Z,17.42
2023-01-28T10:05:34.723Z,21.92
2023-01-28T10:08:21.297Z,18.80
2023-01-28T10:10:56.190Z,19.20
2023-01-28T10:13:44.443Z,18.00
2023-01-28T10:16:38.748Z,19.30
2023-01-28T10:19:09.548Z,17.08
2023-01-28T10:21:37.630Z,17.75
2023-01-28T10:24:15.039Z,17.90
2023-01-28T10:26:43.371Z,16.88
2023-01-28T10:29:18.039Z,17.20
2023-01-28T10:31:56.101Z,16.42
2023-01-28T10:34:24.055Z,19.33
2023-01-28T10:36:52.199Z,20.05
2023-01-28T10:39:22.154Z,19.27
2023-01-28T10:41:57.973Z,18.70
2023-01-28T10:44:46.494Z,19.50
2023-01-28T10:47:30.895Z,18.10
2023-01-28T10:50:03.698Z,19.73
2023-01-28T10:52:31.595Z,17.30
2023-01-28T10:55:03.404Z,17.80
2023-01-28T10:57:33.827Z,19.95
2023-01-28T11:00:23.349Z,16.90
2023-01-28T11:02:51.508Z,18.10
2023-01-28T11:05:25.841Z,16.77
2023-01-28T11:08:12.329Z,19.33
2023-01-28T11:10:40.516Z,19.42
2023-01-28T11:13:16.370Z,17.10
2023-01-28T11:16:01.561Z,18.85
2023-01-28T11:18:31.716Z,16.70
2023-01-28T11:21:05.092Z,17.02
2023-01-28T11:23:39.400Z,20.58
2023-01-28T11:26:16.215Z,19.23
2023-01-28T11:28:44.512Z,19.70
2023-01-28T11:31:44.531Z,19.83
2023-01-28T11:34:18.792Z,22.25
2023-01-28T11:36:53.850Z,17.95
2023-01-28T11:39:25.934Z,19.15
2023-01-28T11:41:54.120Z,49.17
2023-01-28T11:44:25.880Z,23.40
2023-01-28T11:46:56.854Z,23.45
2023-01-28T11:49:38.272Z,19.50
2023-01-28T11:52:06.274Z,20.30
2023-01-28T11:54:37.040Z,17.95
2023-01-28T11:57:11.057Z,24.60
2023-01-28T11:59:46.708Z,18.58
2023-01-28T12:02:17.579Z,19.55
2023-01-28T12:05:10.112Z,19.02
2023-01-28T12:07:55.729Z,19.17
2023-01-28T12:10:29.698Z,18.15
2023-01-28T12:13:00.605Z,20.05
2023-01-28T12:15:28.501Z,16.83
2023-01-28T12:18:05.373Z,17.23
2023-01-28T12:20:43.795Z,18.52
2023-01-28T12:23:11.718Z,16.65
2023-01-28T12:25:50.704Z,17.20
2023-01-28T12:28:21.723Z,20.77
2023-01-28T12:30:55.831Z,17.02
2023-01-28T12:33:37.651Z,18.95
2023-01-28T12:36:13.025Z,16.25
2023-01-28T12:38:45.677Z,17.38
2023-01-28T12:41:21.758Z,14.35
2023-01-28T12:44:04.339Z,16.52
2023-01-28T12:46:32.493Z,13.30
2023-01-28T12:49:19.407Z,13.98
2023-01-28T12:52:02.556Z,13.98
2023-01-28T12:54:40.382Z,10.63
2023-01-28T12:57:11.131Z,14.35
2023-01-28T12:59:54.535Z,16.95
2023-01-28T13:02:25.547Z,13.77
2023-01-28T13:04:56.381Z,11.38
2023-01-28T13:07:30.267Z,13.70
2023-01-28T13:10:04.903Z,15.50
2023-01-28T13:12:34.093Z,13.13
2023-01-28T13:15:02.398Z,13.07
2023-01-28T13:17:31.682Z,14.95
2023-01-28T13:20:03.678Z,10.65
2023-01-28T13:22:35.381Z,11.82
2023-01-28T13:25:23.601Z,12.23
2023-01-28T13:27:55.831Z,14.05
2023-01-28T13:30:34.117Z,14.68
2023-01-28T13:33:02.025Z,11.52
2023-01-28T13:35:34.878Z,11.25
2023-01-28T13:40:31.493Z,14.70
2023-01-28T13:43:00.679Z,13.70
2023-01-28T13:45:28.705Z,13.82
2023-01-28T13:48:02.334Z,11.30
2023-01-28T13:50:38.915Z,11.13
2023-01-28T13:53:19.095Z,13.77
2023-01-28T13:55:47.644Z,13.55
2023-01-28T13:58:30.080Z,11.20
2023-01-28T14:01:30.564Z,10.25
2023-01-28T14:03:58.650Z,12.77
2023-01-28T14:07:02.024Z,11.32
2023-01-28T14:09:39.012Z,13.50
2023-01-28T14:12:10.074Z,14.27
2023-01-28T14:14:47.319Z,11.35
2023-01-28T14:17:21.348Z,12.32
2023-01-28T14:19:50.071Z,15.80
2023-01-28T14:22:19.450Z,13.38
2023-01-28T14:24:47.978Z,12.07
2023-01-28T14:27:18.639Z,13.30
2023-01-28T14:30:05.150Z,12.48
2023-01-28T14:32:34.503Z,14.48
2023-01-28T14:35:06.862Z,13.30
2023-01-28T14:37:34.821Z,12.75
2023-01-28T14:40:07.395Z,11.68
2023-01-28T14:42:38.194Z,10.80
2023-01-28T14:45:12.604Z,11.73
2023-01-28T14:47:43.618Z,10.15
2023-01-28T14:50:18.489Z,8.88
2023-01-28T14:52:49.830Z,10.80
2023-01-28T14:55:41.825Z,11.25
2023-01-28T14:58:22.112Z,9.75
2023-01-28T15:01:00.363Z,12.90
2023-01-28T15:03:29.515Z,11.05
2023-01-28T15:06:05.086Z,12.40
2023-01-28T15:08:33.073Z,12.63
2023-01-28T15:11:02.569Z,10.38
2023-01-28T15:13:32.720Z,12.07
2023-01-28T15:16:00.938Z,11.77
2023-01-28T15:18:28.698Z,12.77
2023-01-28T15:20:57.232Z,11.32
2023-01-28T15:23:29.905Z,13.65
2023-01-28T15:25:57.793Z,13.43
2023-01-28T15:28:28.543Z,13.02
2023-01-28T15:30:56.680Z,11.38
2023-01-28T15:33:25.400Z,14.32
2023-01-28T15:35:54.255Z,14.57
2023-01-28T15:38:22.661Z,15.15
2023-01-28T15:41:00.408Z,13.02
2023-01-28T15:43:33.826Z,17.45
2023-01-28T15:46:01.820Z,15.45
2023-01-28T15:48:31.497Z,14.95
2023-01-28T15:51:09.747Z,16.48
2023-01-28T15:53:42.825Z,17.58
2023-01-28T15:56:12.167Z,15.30
2023-01-28T15:58:43.584Z,16.27
2023-01-28T16:01:11.536Z,19.15
2023-01-28T16:03:40.634Z,19.23
2023-01-28T16:06:11.675Z,27.48
2023-01-28T16:08:59.090Z,51.60
2023-01-28T16:11:45.021Z,23.95
2023-01-28T16:14:22.617Z,23.85
2023-01-28T16:16:50.771Z,25.90
2023-01-28T16:19:31.425Z,25.45
2023-01-28T16:21:59.427Z,23.80
2023-01-28T16:24:30.570Z,22.38
2023-01-28T16:27:03.170Z,22.05
2023-01-28T16:29:31.666Z,17.95
2023-01-28T16:32:00.351Z,21.30
2023-01-28T16:34:28.380Z,22.38
2023-01-28T16:37:00.288Z,23.08
2023-01-28T16:39:28.504Z,24.25
2023-01-28T16:41:57.258Z,22.52
2023-01-28T16:44:25.147Z,23.70
2023-01-28T16:46:53.199Z,21.25
2023-01-28T16:49:21.164Z,25.95
2023-01-28T16:51:49.032Z,22.77
2023-01-28T16:54:17.442Z,23.77
2023-01-28T16:56:46.717Z,22.05
2023-01-28T16:59:15.910Z,22.42
2023-01-28T17:01:47.120Z,24.48
2023-01-28T17:04:15.201Z,21.83
2023-01-28T17:06:44.615Z,27.42
2023-01-28T17:09:14.162Z,23.58
2023-01-28T17:11:42.146Z,26.58
2023-01-28T17:14:10.575Z,21.15
2023-01-28T17:16:38.828Z,22.63
2023-01-28T17:19:07.074Z,29.90
2023-01-28T17:21:34.951Z,32.40
2023-01-28T17:24:03.480Z,34.40
2023-01-28T17:26:31.511Z,33.50
2023-01-28T17:28:59.279Z,26.08
2023-01-28T17:31:27.585Z,29.60
2023-01-28T17:33:56.380Z,22.85
2023-01-28T17:36:25.296Z,24.38
2023-01-28T17:38:53.624Z,31.35
2023-01-28T17:41:21.712Z,38.83
2023-01-28T17:43:56.566Z,57.22
2023-01-28T17:46:25.330Z,40.53
2023-01-28T17:48:55.171Z,61.55
2023-01-28T17:51:23.287Z,37.63
2023-01-28T17:53:54.521Z,39.25
2023-01-28T17:56:24.029Z,34.13
2023-01-28T17:58:52.788Z,36.80
2023-01-28T18:01:21.427Z,33.90
2023-01-28T18:03:49.553Z,33.20
2023-01-28T18:06:17.448Z,37.22
2023-01-28T18:08:45.598Z,36.00
2023-01-28T18:11:14.488Z,33.42
2023-01-28T18:13:43.261Z,36.50
2023-01-28T18:16:15.005Z,39.28
2023-01-28T18:18:42.946Z,35.78
2023-01-28T18:21:42.955Z,35.70
2023-01-28T18:24:18.539Z,35.63
2023-01-28T18:26:46.362Z,34.45
2023-01-28T18:29:20.606Z,32.30
2023-01-28T18:31:49.393Z,32.85
2023-01-28T18:34:18.275Z,30.67
2023-01-28T18:36:46.548Z,43.25
2023-01-28T18:39:14.821Z,33.05
2023-01-28T18:41:43.663Z,35.70
2023-01-28T18:44:12.925Z,32.90
2023-01-28T18:46:42.148Z,35.00
2023-01-28T18:49:10.239Z,36.53
2023-01-28T18:51:40.759Z,38.90
2023-01-28T18:54:13.762Z,53.88
2023-01-28T18:56:43.255Z,41.75
2023-01-28T18:59:12.498Z,49.72
2023-01-28T19:01:42.527Z,37.40
2023-01-28T19:04:10.932Z,34.35
2023-01-28T19:06:38.954Z,36.33
2023-01-28T19:09:07.367Z,33.20
2023-01-28T19:11:35.929Z,36.97
2023-01-28T19:14:04.133Z,37.85
2023-01-28T19:16:32.047Z,40.78
2023-01-28T19:19:00.727Z,37.22
2023-01-28T19:21:29.669Z,36.47
2023-01-28T19:23:58.743Z,35.83
2023-01-28T19:26:26.986Z,32.53
2023-01-28T19:28:55.284Z,31.35
2023-01-28T19:31:24.214Z,34.25
2023-01-28T19:33:59.306Z,28.02
2023-01-28T19:36:48.768Z,30.77
2023-01-28T19:39:41.465Z,30.65
2023-01-28T19:42:14.362Z,29.25
2023-01-28T19:44:42.404Z,28.88
2023-01-28T19:47:10.201Z,29.40
2023-01-28T19:49:38.226Z,33.05
2023-01-28T19:52:09.151Z,33.67
2023-01-28T19:54:36.942Z,35.30
2023-01-28T19:57:05.073Z,34.13
2023-01-28T19:59:32.863Z,33.58
2023-01-28T20:02:00.964Z,48.88
2023-01-28T20:04:28.891Z,52.50
2023-01-28T20:06:56.786Z,33.70
2023-01-28T20:09:24.924Z,28.90
2023-01-28T20:11:57.419Z,35.72
2023-01-28T20:14:25.295Z,31.25
2023-01-28T20:16:53.273Z,35.58
2023-01-28T20:19:21.211Z,32.13
2023-01-28T20:21:51.713Z,28.65
2023-01-28T20:24:37.876Z,26.23
2023-01-28T20:27:05.724Z,26.85
2023-01-28T20:29:33.567Z,28.90
2023-01-28T20:32:16.301Z,28.17
2023-01-28T20:34:46.221Z,26.00
2023-01-28T20:37:14.150Z,30.98
2023-01-28T20:39:42.010Z,29.52
2023-01-28T20:42:10.829Z,28.42
2023-01-28T20:44:38.635Z,30.25
2023-01-28T20:47:06.925Z,29.15
2023-01-28T20:49:35.080Z,34.97
2023-01-28T20:52:04.778Z,31.13
2023-01-28T20:54:36.203Z,36.05
2023-01-28T20:57:04.682Z,38.85
2023-01-28T20:59:32.569Z,43.20
2023-01-28T21:02:00.926Z,59.92
2023-01-28T21:04:28.780Z,38.80
2023-01-28T21:06:56.645Z,44.40
2023-01-28T21:09:25.977Z,49.13
2023-01-28T21:11:54.121Z,42.05
2023-01-28T21:14:22.475Z,44.05
2023-01-28T21:16:53.017Z,59.95
2023-01-28T21:19:21.038Z,66.93
2023-01-28T21:21:48.871Z,53.97
2023-01-28T21:24:16.851Z,51.38
2023-01-28T21:26:50.824Z,44.15
2023-01-28T21:29:19.725Z,42.58
2023-01-28T21:31:47.624Z,42.05
2023-01-28T21:34:16.107Z,39.92
2023-01-28T21:36:44.314Z,35.58
2023-01-28T21:39:12.382Z,30.55
2023-01-28T21:41:40.271Z,34.78
2023-01-28T21:44:08.141Z,34.35
2023-01-28T21:46:36.115Z,36.05
2023-01-28T21:49:07.845Z,41.65
2023-01-28T21:51:39.982Z,39.72
2023-01-28T21:54:12.788Z,32.65
2023-01-28T21:56:40.827Z,32.30
2023-01-28T21:59:30.854Z,41.53
2023-01-28T22:02:11.011Z,34.42
2023-01-28T22:04:40.014Z,36.47
2023-01-28T22:07:09.684Z,34.08
2023-01-28T22:09:37.786Z,35.58
2023-01-28T22:12:09.407Z,32.33
2023-01-28T22:14:37.777Z,31.85
2023-01-28T22:17:11.447Z,27.17
2023-01-28T22:19:39.608Z,26.30
2023-01-28T22:22:08.658Z,27.13
2023-01-28T22:24:36.563Z,28.67
2023-01-28T22:27:04.615Z,26.15
2023-01-28T22:29:32.439Z,26.50
2023-01-28T22:32:03.471Z,31.58
2023-01-28T22:34:31.521Z,35.45
2023-01-28T22:36:59.676Z,36.38
2023-01-28T22:39:27.488Z,30.10
2023-01-28T22:41:55.486Z,30.08
2023-01-28T22:44:23.367Z,33.65
2023-01-28T22:46:52.414Z,27.27
2023-01-28T22:49:20.317Z,26.88
2023-01-28T22:51:48.651Z,29.80
2023-01-28T22:54:16.922Z,31.45
2023-01-28T22:56:46.362Z,24.75
2023-01-28T22:59:14.666Z,28.58
2023-01-28T23:01:42.901Z,28.40
2023-01-28T23:04:11.355Z,29.13
2023-01-28T23:06:39.477Z,29.60
2023-01-28T23:09:07.280Z,29.63
2023-01-28T23:11:35.985Z,29.25
2023-01-28T23:14:23.062Z,28.35
2023-01-28T23:17:10.007Z,31.00
2023-01-28T23:19:56.636Z,28.08
2023-01-28T23:22:44.937Z,28.20
2023-01-28T23:25:12.802Z,25.75
2023-01-28T23:27:41.229Z,29.70
2023-01-28T23:30:10.599Z,33.45
2023-01-28T23:32:43.449Z,31.63
2023-01-28T23:35:12.264Z,36.45
2023-01-28T23:37:40.276Z,30.00
2023-01-28T23:40:08.284Z,26.48
2023-01-28T23:42:36.289Z,30.35
2023-01-28T23:45:04.312Z,26.40
2023-01-28T23:47:32.395Z,27.73
2023-01-28T23:50:00.644Z,26.13
2023-01-28T23:52:28.536Z,26.83
2023-01-28T23:54:56.357Z,26.30
2023-01-28T23:57:24.114Z,25.38
2023-01-28T23:59:52.035Z,25.23
